Time;durP1;ratioP1;P1;durP2;ratioP2;P2;SDS_P1;SDS_P2;PMS_P1;PMS_P2;Temp;Humidity;BMP_temperature;BMP_pressure;BME280_temperature;BME280_humidity;BME280_pressure;Samples;Min_cycle;Max_cycle;Signal;HPM_P1;HPM_P2
2023/04/18 00:07:40;;;;;;;;;;;;;;;6.00;100.00;97928.50;18301827;32;20005;-57
2023/04/18 00:17:42;;;;;;;;;;;;;;;6.07;100.00;97923.81;18289433;32;19953;-57
2023/04/18 00:27:44;;;;;;;;;;;;;;;6.14;100.00;97918.31;18303160;32;19949;-57
2023/04/18 00:37:46;;;;;;;;;;;;;;;6.23;100.00;97916.91;18302859;32;19956;-58
2023/04/18 00:47:48;;;;;;;;;;;;;;;6.30;100.00;97906.84;18287985;32;20001;-57
2023/04/18 00:57:51;;;;;;;;;;;;;;;6.45;100.00;97909.06;18287813;32;19993;-57
2023/04/18 01:07:57;;;;;;;;;;;;;;;6.56;100.00;97904.72;18301322;32;19957;-57
2023/04/18 01:17:59;;;;;;;;;;;;;;;6.62;100.00;97888.44;18300990;32;19968;-58
2023/04/18 01:28:03;;;;;;;;;;;;;;;6.67;100.00;97890.41;18286424;32;19964;-57
2023/04/18 01:38:05;;;;;;;;;;;;;;;6.73;100.00;97883.28;18299929;32;19967;-57
2023/04/18 01:48:07;;;;;;;;;;;;;;;6.75;100.00;97876.59;18299004;32;19971;-57
2023/04/18 01:58:10;;;;;;;;;;;;;;;6.76;100.00;97867.47;18298931;32;19993;-57
2023/04/18 02:08:12;;;;;;;;;;;;;;;6.77;100.00;97863.75;18298399;32;19961;-57
2023/04/18 02:18:16;;;;;;;;;;;;;;;6.82;100.00;97859.53;18297961;32;19945;-57
2023/04/18 02:28:18;;;;;;;;;;;;;;;6.79;100.00;97858.94;18282942;32;19945;-57
2023/04/18 02:38:20;;;;;;;;;;;;;;;6.76;100.00;97862.09;18296942;32;19954;-57
2023/04/18 02:48:22;;;;;;;;;;;;;;;6.75;100.00;97860.47;18296572;32;19961;-57
2023/04/18 02:58:26;;;;;;;;;;;;;;;6.78;100.00;97862.69;18282552;32;19958;-57
2023/04/18 03:08:28;;;;;;;;;;;;;;;6.73;100.00;97857.22;18295587;32;19981;-57
2023/04/18 03:18:30;;;;;;;;;;;;;;;6.65;100.00;97857.59;18295474;32;19983;-57
2023/04/18 03:28:33;;;;;;;;;;;;;;;6.68;100.00;97861.69;18280406;32;19962;-57
2023/04/18 03:38:35;;;;;;;;;;;;;;;6.69;100.00;97855.25;18298487;32;19950;-57
2023/04/18 03:48:37;;;;;;;;;;;;;;;6.63;100.00;97848.94;18304906;32;20302;-57
2023/04/18 03:58:39;;;;;;;;;;;;;;;6.62;100.00;97852.72;18291236;32;19946;-57
2023/04/18 04:08:42;;;;;;;;;;;;;;;6.56;100.00;97845.59;18304358;32;19946;-58
2023/04/18 04:18:44;;;;;;;;;;;;;;;6.52;100.00;97839.06;18304153;32;19959;-57
2023/04/18 04:28:47;;;;;;;;;;;;;;;6.51;100.00;97848.19;18303395;32;20341;-57
2023/04/18 04:38:49;;;;;;;;;;;;;;;6.49;100.00;97856.47;18302881;32;20280;-57
2023/04/18 04:48:53;;;;;;;;;;;;;;;6.38;100.00;97858.16;18301686;32;19973;-57
2023/04/18 04:58:55;;;;;;;;;;;;;;;6.36;100.00;97859.44;18302173;32;20310;-57
2023/04/18 05:08:59;;;;;;;;;;;;;;;6.38;100.00;97858.16;18301067;32;19957;-57
2023/04/18 05:19:02;;;;;;;;;;;;;;;6.41;100.00;97860.38;18287727;32;19942;-57
2023/04/18 05:29:04;;;;;;;;;;;;;;;6.41;100.00;97860.38;18300839;32;19958;-58
2023/04/18 05:39:08;;;;;;;;;;;;;;;6.38;100.00;97860.03;18299802;32;19958;-58
2023/04/18 05:49:11;;;;;;;;;;;;;;;6.36;100.00;97868.34;18299441;32;20023;-58
2023/04/18 05:59:13;;;;;;;;;;;;;;;6.46;100.00;97874.97;18284300;32;19994;-57
2023/04/18 06:09:15;;;;;;;;;;;;;;;6.54;100.00;97875.41;18298462;32;19953;-58
2023/04/18 06:19:18;;;;;;;;;;;;;;;6.64;100.00;97872.09;18284001;32;19960;-57
2023/04/18 06:29:21;;;;;;;;;;;;;;;6.65;100.00;97891.72;18297500;32;20016;-58
2023/04/18 06:39:24;;;;;;;;;;;;;;;6.74;100.00;97885.72;18283564;32;19946;-57
2023/04/18 06:49:26;;;;;;;;;;;;;;;6.90;100.00;97888.69;18232487;32;20389;-57
2023/04/18 06:59:29;;;;;;;;;;;;;;;6.99;100.00;97889.94;18233132;32;20004;-58
2023/04/18 07:09:31;;;;;;;;;;;;;;;7.09;100.00;97886.62;18231452;32;19958;-58
2023/04/18 07:19:34;;;;;;;;;;;;;;;7.23;100.00;97892.50;18231953;32;19950;-57
2023/04/18 07:29:36;;;;;;;;;;;;;;;7.36;100.00;97892.19;18230926;32;19980;-57
2023/04/18 07:39:39;;;;;;;;;;;;;;;7.45;100.00;97896.13;18230603;32;20023;-57
2023/04/18 07:49:41;;;;;;;;;;;;;;;7.52;100.00;97895.13;18292698;32;19965;-57
2023/04/18 07:59:44;;;;;;;;;;;;;;;7.67;100.00;97914.22;18293521;32;19949;-58
2023/04/18 08:09:47;;;;;;;;;;;;;;;7.88;100.00;97911.84;18293274;32;19956;-57
2023/04/18 08:19:49;;;;;;;;;;;;;;;8.24;100.00;97918.56;18292730;32;19964;-57
2023/04/18 08:29:51;;;;;;;;;;;;;;;8.50;100.00;97920.78;18287992;32;19965;-57
2023/04/18 08:39:55;;;;;;;;;;;;;;;8.80;100.00;97918.47;18302316;32;20284;-57
2023/04/18 08:49:57;;;;;;;;;;;;;;;9.39;100.00;97922.31;18302303;32;20008;-57
2023/04/18 09:00:00;;;;;;;;;;;;;;;9.96;100.00;97936.25;18287792;32;19976;-57
2023/04/18 09:10:03;;;;;;;;;;;;;;;10.58;100.00;97937.47;18301019;32;19970;-57
2023/04/18 09:20:09;;;;;;;;;;;;;;;11.35;100.00;97931.50;18287077;32;19948;-57
2023/04/18 09:30:27;;;;;;;;;;;;;;;11.61;100.00;97928.81;18300268;32;19988;-57
2023/04/18 09:40:30;;;;;;;;;;;;;;;11.80;100.00;97920.94;18284916;32;20004;-58
2023/04/18 09:50:34;;;;;;;;;;;;;;;12.75;100.00;97934.87;18299401;32;19965;-57
2023/04/18 10:00:37;;;;;;;;;;;;;;;12.80;100.00;97927.53;18285298;32;19937;-57
2023/04/18 10:10:40;;;;;;;;;;;;;;;13.82;100.00;97935.34;18284906;32;19985;-58
2023/04/18 10:20:43;;;;;;;;;;;;;;;14.47;95.81;97932.25;18284401;32;19945;-58
2023/04/18 10:30:45;;;;;;;;;;;;;;;14.76;89.06;97938.75;18297476;32;19960;-58
2023/04/18 10:40:48;;;;;;;;;;;;;;;15.65;87.86;97934.53;18296286;32;19965;-58
2023/04/18 10:51:09;;;;;;;;;;;;;;;16.22;79.30;97932.50;18282322;32;19945;-58
2023/04/18 11:01:15;;;;;;;;;;;;;;;15.22;81.04;97919.09;18281949;32;19941;-58
2023/04/18 11:11:18;;;;;;;;;;;;;;;15.12;80.50;97908.38;18295744;32;20371;-58
2023/04/18 11:21:23;;;;;;;;;;;;;;;16.01;84.29;97912.19;18295189;32;19975;-58
2023/04/18 11:31:26;;;;;;;;;;;;;;;15.31;82.56;97909.16;18294959;32;19950;-57
2023/04/18 11:41:29;;;;;;;;;;;;;;;14.60;86.78;97905.47;18294339;32;19976;-57
2023/04/18 11:51:34;;;;;;;;;;;;;;;13.72;91.79;97892.75;18294461;32;19949;-57
2023/04/18 12:01:37;;;;;;;;;;;;;;;13.63;95.99;97905.31;18300272;32;19953;-57
2023/04/18 12:11:40;;;;;;;;;;;;;;;13.85;96.10;97905.69;18290399;32;19954;-58
2023/04/18 12:22:05;;;;;;;;;;;;;;;13.64;99.76;97918.63;18303800;32;19965;-57
2023/04/18 12:32:07;;;;;;;;;;;;;;;14.23;98.79;97905.03;18289412;32;20004;-58
2023/04/18 12:42:10;;;;;;;;;;;;;;;14.70;89.98;97913.50;18303067;32;19958;-57
2023/04/18 12:52:12;;;;;;;;;;;;;;;15.47;81.75;97909.75;18302200;32;19964;-57
2023/04/18 13:02:15;;;;;;;;;;;;;;;15.92;81.53;97912.03;18301739;32;19965;-57
2023/04/18 13:12:17;;;;;;;;;;;;;;;15.42;87.05;97907.09;18287191;32;20259;-57
2023/04/18 13:22:20;;;;;;;;;;;;;;;16.24;74.60;97905.75;18300852;32;20357;-57
2023/04/18 13:32:23;;;;;;;;;;;;;;;16.36;74.19;97901.72;18300228;32;19950;-57
2023/04/18 13:42:26;;;;;;;;;;;;;;;17.01;69.55;97900.69;18299660;32;19953;-58
2023/04/18 13:52:29;;;;;;;;;;;;;;;17.17;68.98;97905.81;18299374;32;19950;-58
2023/04/18 14:02:31;;;;;;;;;;;;;;;17.44;67.31;97904.94;18298826;32;19949;-57
2023/04/18 14:12:34;;;;;;;;;;;;;;;17.88;65.65;97891.56;18298171;32;20269;-57
2023/04/18 14:22:37;;;;;;;;;;;;;;;17.79;60.86;97899.72;18296990;32;19941;-57
2023/04/18 14:32:39;;;;;;;;;;;;;;;18.21;62.04;97894.84;18283419;32;19994;-58
2023/04/18 14:42:42;;;;;;;;;;;;;;;19.11;55.42;97896.41;18296748;32;19996;-58
2023/04/18 14:52:45;;;;;;;;;;;;;;;19.20;54.04;97899.19;18282672;32;19973;-57
2023/04/18 15:02:48;;;;;;;;;;;;;;;18.36;55.02;97881.84;18296065;32;20380;-58
2023/04/18 15:12:51;;;;;;;;;;;;;;;18.00;57.34;97891.03;18295342;32;19954;-58
2023/04/18 15:22:54;;;;;;;;;;;;;;;17.87;59.49;97882.56;18295131;32;19983;-57
2023/04/18 15:32:57;;;;;;;;;;;;;;;17.34;59.60;97873.19;18284104;32;20009;-58
2023/04/18 15:43:00;;;;;;;;;;;;;;;16.88;62.81;97869.53;18305473;32;20004;-57
2023/04/18 15:53:02;;;;;;;;;;;;;;;16.93;62.62;97882.31;18291320;32;19965;-58
2023/04/18 16:03:08;;;;;;;;;;;;;;;16.95;64.54;97880.06;18304694;32;19964;-58
2023/04/18 16:13:11;;;;;;;;;;;;;;;17.03;61.11;97884.00;18304314;32;19977;-57
2023/04/18 16:23:13;;;;;;;;;;;;;;;16.53;64.18;97880.09;18289883;32;20332;-57
2023/04/18 16:33:19;;;;;;;;;;;;;;;16.33;66.46;97885.94;18303156;32;19968;-58
2023/04/18 16:43:22;;;;;;;;;;;;;;;16.31;73.25;97886.25;18288037;32;20004;-58
2023/04/18 16:53:25;;;;;;;;;;;;;;;17.19;65.39;97884.47;18302108;32;19949;-58
2023/04/18 17:03:28;;;;;;;;;;;;;;;17.65;62.34;97891.59;18301936;32;19949;-58
2023/04/18 17:13:31;;;;;;;;;;;;;;;16.69;65.83;97896.16;18301221;32;19992;-58
2023/04/18 17:23:33;;;;;;;;;;;;;;;15.63;73.37;97910.31;18300683;32;20268;-58
2023/04/18 17:33:36;;;;;;;;;;;;;;;15.19;78.34;97906.88;18286537;32;19950;-57
2023/04/18 17:43:38;;;;;;;;;;;;;;;14.66;82.56;97901.59;18286108;32;19994;-58
2023/04/18 17:53:40;;;;;;;;;;;;;;;14.16;88.28;97899.94;18284506;32;20314;-57
2023/04/18 18:03:43;;;;;;;;;;;;;;;13.81;91.57;97904.59;18298794;32;19961;-58
2023/04/18 18:13:46;;;;;;;;;;;;;;;13.37;98.04;97913.66;18298662;32;19946;-58
2023/04/18 18:23:48;;;;;;;;;;;;;;;12.85;100.00;97918.53;18298543;32;19954;-58
2023/04/18 18:33:50;;;;;;;;;;;;;;;12.29;100.00;97924.97;18297603;32;19953;-58
2023/04/18 18:43:53;;;;;;;;;;;;;;;11.66;100.00;97939.62;18283487;32;19993;-57
2023/04/18 18:53:56;;;;;;;;;;;;;;;11.13;100.00;97954.19;18296296;32;19950;-57
2023/04/18 19:03:58;;;;;;;;;;;;;;;10.80;100.00;97958.94;18296166;32;19964;-58
2023/04/18 19:14:01;;;;;;;;;;;;;;;10.43;100.00;97976.06;18281582;32;19998;-57
2023/04/18 19:24:04;;;;;;;;;;;;;;;10.07;100.00;97974.97;18295288;32;19937;-57
2023/04/18 19:34:07;;;;;;;;;;;;;;;9.82;100.00;97979.91;18294776;32;19950;-57
2023/04/18 19:44:09;;;;;;;;;;;;;;;9.66;100.00;97991.66;18294071;32;19974;-57
2023/04/18 19:54:12;;;;;;;;;;;;;;;9.45;100.00;97998.75;18294034;32;19953;-57
2023/04/18 20:04:15;;;;;;;;;;;;;;;9.21;100.00;98001.75;18293649;32;19989;-57
2023/04/18 20:14:18;;;;;;;;;;;;;;;8.91;100.00;98002.19;18293925;32;19957;-57
2023/04/18 20:24:20;;;;;;;;;;;;;;;8.55;100.00;98004.41;18301111;32;19961;-57
2023/04/18 20:34:23;;;;;;;;;;;;;;;8.29;100.00;98012.09;18276854;32;19988;-57
2023/04/18 20:44:26;;;;;;;;;;;;;;;8.01;100.00;98011.13;18302493;32;19949;-57
2023/04/18 20:54:29;;;;;;;;;;;;;;;7.80;100.00;98021.56;18288120;32;20005;-57
2023/04/18 21:04:31;;;;;;;;;;;;;;;7.58;100.00;98020.66;18288420;32;19942;-58
2023/04/18 21:14:35;;;;;;;;;;;;;;;7.40;100.00;98021.63;18301808;32;19968;-57
2023/04/18 21:24:39;;;;;;;;;;;;;;;7.28;100.00;98025.19;18287786;32;19976;-57
2023/04/18 21:34:41;;;;;;;;;;;;;;;7.16;100.00;98037.88;18300185;32;20304;-57
2023/04/18 21:44:43;;;;;;;;;;;;;;;7.06;100.00;98040.38;18299623;32;19964;-57
2023/04/18 21:54:46;;;;;;;;;;;;;;;6.95;100.00;98037.47;18299593;32;20013;-57
2023/04/18 22:04:49;;;;;;;;;;;;;;;6.87;100.00;98035.16;18298922;32;19958;-57
2023/04/18 22:14:51;;;;;;;;;;;;;;;6.89;100.00;98032.22;18272134;32;19971;-58
2023/04/18 22:24:53;;;;;;;;;;;;;;;6.79;100.00;98030.94;18298052;32;19953;-57
2023/04/18 22:34:56;;;;;;;;;;;;;;;6.73;100.00;98033.78;18297126;32;20005;-57
2023/04/18 22:44:58;;;;;;;;;;;;;;;6.56;100.00;98034.47;18282421;32;19945;-57
2023/04/18 22:55:01;;;;;;;;;;;;;;;6.38;100.00;98039.97;18296799;32;20287;-57
2023/04/18 23:05:04;;;;;;;;;;;;;;;6.18;100.00;98037.63;18296063;32;19997;-57
2023/04/18 23:15:07;;;;;;;;;;;;;;;5.97;100.00;98047.84;18282074;32;19949;-57
2023/04/18 23:25:10;;;;;;;;;;;;;;;5.75;100.00;98058.31;18295394;32;19954;-57
2023/04/18 23:35:12;;;;;;;;;;;;;;;5.55;100.00;98061.25;18294808;32;19957;-57
2023/04/18 23:45:14;;;;;;;;;;;;;;;5.39;100.00;98063.53;18280378;32;20304;-57
2023/04/18 23:55:16;;;;;;;;;;;;;;;5.23;100.00;98064.16;18297958;32;20004;-57
